Aviation Digital Data Service (ADDS)

Output produced by METARs form (1631 UTC 16 June 2019)
found at http://www.aviationweather.gov/metar/data/
 
METAR text: RJSN 161200Z 26016KT 8000 -SHRA FEW010 SCT020 BKN030 16/16 Q1001
Conditions at: RJSN (NIIGATA (CIV/JAS, JP) observed 1200 UTC 16 June 2019
Temperature: 16.0°C (61°F)
Dewpoint: 16.0°C (61°F) [RH = 100%]
Pressure (altimeter): 29.56 inches Hg (1001.0 mb)
Winds: from the W (260 degrees) at 18 MPH (16 knots; 8.2 m/s)
Visibility: 5 miles ( 8 km)
Ceiling: 3000 feet AGL
Clouds: few clouds at 1000 feet AGL
scattered clouds at 2000 feet AGL
broken clouds at 3000 feet AGL
Weather: -SHRA  (light rain showers)

METAR text: RJSN 161100Z 25016KT 8000 -SHRA FEW010 SCT020 BKN030 16/16 Q0999
Conditions at: RJSN (NIIGATA (CIV/JAS, JP) observed 1100 UTC 16 June 2019
Temperature: 16.0°C (61°F)
Dewpoint: 16.0°C (61°F) [RH = 100%]
Pressure (altimeter): 29.50 inches Hg (999.0 mb)
Winds: from the WSW (250 degrees) at 18 MPH (16 knots; 8.2 m/s)
Visibility: 5 miles ( 8 km)
Ceiling: 3000 feet AGL
Clouds: few clouds at 1000 feet AGL
scattered clouds at 2000 feet AGL
broken clouds at 3000 feet AGL
Weather: -SHRA  (light rain showers)

METAR text: RJSN 161000Z 27016KT 8000 -SHRA FEW010 BKN020 BKN030 17/17 Q0998
Conditions at: RJSN (NIIGATA (CIV/JAS, JP) observed 1000 UTC 16 June 2019
Temperature: 17.0°C (63°F)
Dewpoint: 17.0°C (63°F) [RH = 100%]
Pressure (altimeter): 29.47 inches Hg (998.0 mb)
Winds: from the W (270 degrees) at 18 MPH (16 knots; 8.2 m/s)
Visibility: 5 miles ( 8 km)
Ceiling: 2000 feet AGL
Clouds: few clouds at 1000 feet AGL
broken clouds at 2000 feet AGL
broken clouds at 3000 feet AGL
Weather: -SHRA  (light rain showers)

METAR text: RJSN 160900Z 25015KT 6000 -SHRA FEW010 SCT020 BKN030 17/17 Q0997
Conditions at: RJSN (NIIGATA (CIV/JAS, JP) observed 0900 UTC 16 June 2019
Temperature: 17.0°C (63°F)
Dewpoint: 17.0°C (63°F) [RH = 100%]
Pressure (altimeter): 29.44 inches Hg (997.0 mb)
Winds: from the WSW (250 degrees) at 17 MPH (15 knots; 7.7 m/s)
Visibility: 4 miles ( 6 km)
Ceiling: 3000 feet AGL
Clouds: few clouds at 1000 feet AGL
scattered clouds at 2000 feet AGL
broken clouds at 3000 feet AGL
Weather: -SHRA  (light rain showers)

METAR text: RJSN 160847Z 25016G26KT 6000 -SHRA FEW010 SCT020 BKN030 17/17 Q0996 RMK 2CU010 4CU020 6CU030 A2943
Conditions at: RJSN (NIIGATA (CIV/JAS, JP) observed 0847 UTC 16 June 2019
Temperature: 17.0°C (63°F)
Dewpoint: 17.0°C (63°F) [RH = 100%]
Pressure (altimeter): 29.41 inches Hg (996.0 mb)
Winds: from the WSW (250 degrees) at 18 MPH (16 knots; 8.2 m/s)
gusting to 30 MPH (26 knots; 13.4 m/s)
Visibility: 4 miles ( 6 km)
Ceiling: 3000 feet AGL
Clouds: few clouds at 1000 feet AGL
scattered clouds at 2000 feet AGL
broken clouds at 3000 feet AGL
Weather: -SHRA  (light rain showers)

METAR text: RJSN 160825Z 25019KT 5000 SHRA FEW010 SCT020 BKN030 17/17 Q0996 RMK 1CU010 3CU020 5CU030 A2942 P/RR
Conditions at: RJSN (NIIGATA (CIV/JAS, JP) observed 0825 UTC 16 June 2019
Temperature: 17.0°C (63°F)
Dewpoint: 17.0°C (63°F) [RH = 100%]
Pressure (altimeter): 29.41 inches Hg (996.0 mb)
Winds: from the WSW (250 degrees) at 22 MPH (19 knots; 9.8 m/s)
Visibility: 3 miles ( 5 km)
Ceiling: 3000 feet AGL
Clouds: few clouds at 1000 feet AGL
scattered clouds at 2000 feet AGL
broken clouds at 3000 feet AGL
Weather: SHRA  (rain showers)

METAR text: RJSN 160807Z 24019KT 4500 SHRA FEW008 SCT010 BKN020 17/17 Q0995 RMK 1CU008 3CU010 5CU020 A2940
Conditions at: RJSN (NIIGATA (CIV/JAS, JP) observed 0807 UTC 16 June 2019
Temperature: 17.0°C (63°F)
Dewpoint: 17.0°C (63°F) [RH = 100%]
Pressure (altimeter): 29.38 inches Hg (995.0 mb)
Winds: from the WSW (240 degrees) at 22 MPH (19 knots; 9.8 m/s)
Visibility: 2.80 miles (4.51 km)
Ceiling: 2000 feet AGL
Clouds: few clouds at 800 feet AGL
scattered clouds at 1000 feet AGL
broken clouds at 2000 feet AGL
Weather: SHRA  (rain showers)

METAR text: RJSN 160800Z 24018KT 6000 -SHRA FEW008 SCT010 BKN040 17/17 Q0995
Conditions at: RJSN (NIIGATA (CIV/JAS, JP) observed 0800 UTC 16 June 2019
Temperature: 17.0°C (63°F)
Dewpoint: 17.0°C (63°F) [RH = 100%]
Pressure (altimeter): 29.38 inches Hg (995.0 mb)
Winds: from the WSW (240 degrees) at 21 MPH (18 knots; 9.3 m/s)
Visibility: 4 miles ( 6 km)
Ceiling: 4000 feet AGL
Clouds: few clouds at 800 feet AGL
scattered clouds at 1000 feet AGL
broken clouds at 4000 feet AGL
Weather: -SHRA  (light rain showers)

METAR text: RJSN 160700Z 23018G30KT 6000 -SHRA FEW008 SCT010 BKN020 18/18 Q0993
Conditions at: RJSN (NIIGATA (CIV/JAS, JP) observed 0700 UTC 16 June 2019
Temperature: 18.0°C (64°F)
Dewpoint: 18.0°C (64°F) [RH = 100%]
Pressure (altimeter): 29.32 inches Hg (993.0 mb)
Winds: from the SW (230 degrees) at 21 MPH (18 knots; 9.3 m/s)
gusting to 34 MPH (30 knots; 15.4 m/s)
Visibility: 4 miles ( 6 km)
Ceiling: 2000 feet AGL
Clouds: few clouds at 800 feet AGL
scattered clouds at 1000 feet AGL
broken clouds at 2000 feet AGL
Weather: -SHRA  (light rain showers)

METAR text: RJSN 160639Z 23024G41KT 7000 -SHRA FEW008 BKN010 BKN020 18/18 Q0993 RMK 1CU008 5CU010 7CU020 A2933
Conditions at: RJSN (NIIGATA (CIV/JAS, JP) observed 0639 UTC 16 June 2019
Temperature: 18.0°C (64°F)
Dewpoint: 18.0°C (64°F) [RH = 100%]
Pressure (altimeter): 29.32 inches Hg (993.0 mb)
Winds: from the SW (230 degrees) at 28 MPH (24 knots; 12.3 m/s)
gusting to 47 MPH (41 knots; 21.1 m/s)
Visibility: 4 miles ( 7 km)
Ceiling: 1000 feet AGL
Clouds: few clouds at 800 feet AGL
broken clouds at 1000 feet AGL
broken clouds at 2000 feet AGL
Weather: -SHRA  (light rain showers)

METAR text: RJSN 160625Z 23023G38KT 4000 -SHRA FEW008 BKN010 18/18 Q0992 RMK 2CU008 7CU010 A2932
Conditions at: RJSN (NIIGATA (CIV/JAS, JP) observed 0625 UTC 16 June 2019
Temperature: 18.0°C (64°F)
Dewpoint: 18.0°C (64°F) [RH = 100%]
Pressure (altimeter): 29.29 inches Hg (992.0 mb)
Winds: from the SW (230 degrees) at 26 MPH (23 knots; 11.8 m/s)
gusting to 44 MPH (38 knots; 19.5 m/s)
Visibility: 2.49 miles (4.01 km)
Ceiling: 1000 feet AGL
Clouds: few clouds at 800 feet AGL
broken clouds at 1000 feet AGL
Weather: -SHRA  (light rain showers)

METAR text: RJSN 160600Z 23022G34KT 5000 -SHRA FEW008 BKN010 BKN020 18/18 Q0992
Conditions at: RJSN (NIIGATA (CIV/JAS, JP) observed 0600 UTC 16 June 2019
Temperature: 18.0°C (64°F)
Dewpoint: 18.0°C (64°F) [RH = 100%]
Pressure (altimeter): 29.29 inches Hg (992.0 mb)
Winds: from the SW (230 degrees) at 25 MPH (22 knots; 11.3 m/s)
gusting to 39 MPH (34 knots; 17.5 m/s)
Visibility: 3 miles ( 5 km)
Ceiling: 1000 feet AGL
Clouds: few clouds at 800 feet AGL
broken clouds at 1000 feet AGL
broken clouds at 2000 feet AGL
Weather: -SHRA  (light rain showers)

METAR text: RJSN 160500Z 23020G31KT 9999 -SHRA FEW008 SCT010 BKN020 19/18 Q0992
Conditions at: RJSN (NIIGATA (CIV/JAS, JP) observed 0500 UTC 16 June 2019
Temperature: 19.0°C (66°F)
Dewpoint: 18.0°C (64°F) [RH = 94%]
Pressure (altimeter): 29.29 inches Hg (992.0 mb)
Winds: from the SW (230 degrees) at 23 MPH (20 knots; 10.3 m/s)
gusting to 36 MPH (31 knots; 15.9 m/s)
Visibility: 6 or more miles (10+ km)
Ceiling: 2000 feet AGL
Clouds: few clouds at 800 feet AGL
scattered clouds at 1000 feet AGL
broken clouds at 2000 feet AGL
Weather: -SHRA  (light rain showers)

METAR text: RJSN 160400Z 23021G33KT 8000 R28/1400VP2000N -SHRA FEW008 SCT010 BKN020 18/18 Q0991
Conditions at: RJSN (NIIGATA (CIV/JAS, JP) observed 0400 UTC 16 June 2019
Temperature: 18.0°C (64°F)
Dewpoint: 18.0°C (64°F) [RH = 100%]
Pressure (altimeter): 29.26 inches Hg (991.0 mb)
Winds: from the SW (230 degrees) at 24 MPH (21 knots; 10.8 m/s)
gusting to 38 MPH (33 knots; 17.0 m/s)
Visibility: 5 miles ( 8 km)
Ceiling: 2000 feet AGL
Clouds: few clouds at 800 feet AGL
scattered clouds at 1000 feet AGL
broken clouds at 2000 feet AGL
Weather: -SHRA  (light rain showers)

METAR text: RJSN 160348Z 23019G31KT 4000 -SHRA FEW008 BKN010 BKN020 18/18 Q0991 RMK 1CU008 5CU010 7CU020 A2927
Conditions at: RJSN (NIIGATA (CIV/JAS, JP) observed 0348 UTC 16 June 2019
Temperature: 18.0°C (64°F)
Dewpoint: 18.0°C (64°F) [RH = 100%]
Pressure (altimeter): 29.26 inches Hg (991.0 mb)
Winds: from the SW (230 degrees) at 22 MPH (19 knots; 9.8 m/s)
gusting to 36 MPH (31 knots; 15.9 m/s)
Visibility: 2.49 miles (4.01 km)
Ceiling: 1000 feet AGL
Clouds: few clouds at 800 feet AGL
broken clouds at 1000 feet AGL
broken clouds at 2000 feet AGL
Weather: -SHRA  (light rain showers)

METAR text: RJSN 160302Z 23022G38KT 8000 -SHRA FEW008 SCT015 BKN040 18/18 Q0990 RMK 1CU008 3CU015 6CU040 A2925
Conditions at: RJSN (NIIGATA (CIV/JAS, JP) observed 0302 UTC 16 June 2019
Temperature: 18.0°C (64°F)
Dewpoint: 18.0°C (64°F) [RH = 100%]
Pressure (altimeter): 29.23 inches Hg (990.0 mb)
Winds: from the SW (230 degrees) at 25 MPH (22 knots; 11.3 m/s)
gusting to 44 MPH (38 knots; 19.5 m/s)
Visibility: 5 miles ( 8 km)
Ceiling: 4000 feet AGL
Clouds: few clouds at 800 feet AGL
scattered clouds at 1500 feet AGL
broken clouds at 4000 feet AGL
Weather: -SHRA  (light rain showers)

METAR text: RJSN 160300Z 23021KT 8000 -SHRA FEW008 SCT015 BKN040 19/19 Q0990
Conditions at: RJSN (NIIGATA (CIV/JAS, JP) observed 0300 UTC 16 June 2019
Temperature: 19.0°C (66°F)
Dewpoint: 19.0°C (66°F) [RH = 100%]
Pressure (altimeter): 29.23 inches Hg (990.0 mb)
Winds: from the SW (230 degrees) at 24 MPH (21 knots; 10.8 m/s)
Visibility: 5 miles ( 8 km)
Ceiling: 4000 feet AGL
Clouds: few clouds at 800 feet AGL
scattered clouds at 1500 feet AGL
broken clouds at 4000 feet AGL
Weather: -SHRA  (light rain showers)

METAR text: RJSN 160209Z 23021G31KT 8000 -SHRA FEW008 BKN010 BKN070 19/19 Q0989 RMK 1CU008 5CU010 7AC070 A2922
Conditions at: RJSN (NIIGATA (CIV/JAS, JP) observed 0209 UTC 16 June 2019
Temperature: 19.0°C (66°F)
Dewpoint: 19.0°C (66°F) [RH = 100%]
Pressure (altimeter): 29.20 inches Hg (989.0 mb)
Winds: from the SW (230 degrees) at 24 MPH (21 knots; 10.8 m/s)
gusting to 36 MPH (31 knots; 15.9 m/s)
Visibility: 5 miles ( 8 km)
Ceiling: 1000 feet AGL
Clouds: few clouds at 800 feet AGL
broken clouds at 1000 feet AGL
broken clouds at 7000 feet AGL
Weather: -SHRA  (light rain showers)

METAR text: RJSN 160200Z 23022KT 8000 -SHRA FEW008 BKN010 BKN070 19/19 Q0989
Conditions at: RJSN (NIIGATA (CIV/JAS, JP) observed 0200 UTC 16 June 2019
Temperature: 19.0°C (66°F)
Dewpoint: 19.0°C (66°F) [RH = 100%]
Pressure (altimeter): 29.20 inches Hg (989.0 mb)
Winds: from the SW (230 degrees) at 25 MPH (22 knots; 11.3 m/s)
Visibility: 5 miles ( 8 km)
Ceiling: 1000 feet AGL
Clouds: few clouds at 800 feet AGL
broken clouds at 1000 feet AGL
broken clouds at 7000 feet AGL
Weather: -SHRA  (light rain showers)

METAR text: RJSN 160100Z 23023G34KT 8000 -SHRA FEW008 SCT010 BKN015 19/19 Q0988
Conditions at: RJSN (NIIGATA (CIV/JAS, JP) observed 0100 UTC 16 June 2019
Temperature: 19.0°C (66°F)
Dewpoint: 19.0°C (66°F) [RH = 100%]
Pressure (altimeter): 29.17 inches Hg (988.0 mb)
Winds: from the SW (230 degrees) at 26 MPH (23 knots; 11.8 m/s)
gusting to 39 MPH (34 knots; 17.5 m/s)
Visibility: 5 miles ( 8 km)
Ceiling: 1500 feet AGL
Clouds: few clouds at 800 feet AGL
scattered clouds at 1000 feet AGL
broken clouds at 1500 feet AGL
Weather: -SHRA  (light rain showers)

METAR text: RJSN 160000Z 22021G31KT 8000 -SHRA FEW010 SCT015 BKN020 19/18 Q0987
Conditions at: RJSN (NIIGATA (CIV/JAS, JP) observed 0000 UTC 16 June 2019
Temperature: 19.0°C (66°F)
Dewpoint: 18.0°C (64°F) [RH = 94%]
Pressure (altimeter): 29.14 inches Hg (987.0 mb)
Winds: from the SW (220 degrees) at 24 MPH (21 knots; 10.8 m/s)
gusting to 36 MPH (31 knots; 15.9 m/s)
Visibility: 5 miles ( 8 km)
Ceiling: 2000 feet AGL
Clouds: few clouds at 1000 feet AGL
scattered clouds at 1500 feet AGL
broken clouds at 2000 feet AGL
Weather: -SHRA  (light rain showers)

METAR text: RJSN 152300Z 23023G38KT 9999 -SHRA FEW010 SCT015 BKN020 20/19 Q0987
Conditions at: RJSN (NIIGATA (CIV/JAS, JP) observed 2300 UTC 15 June 2019
Temperature: 20.0°C (68°F)
Dewpoint: 19.0°C (66°F) [RH = 94%]
Pressure (altimeter): 29.14 inches Hg (987.0 mb)
Winds: from the SW (230 degrees) at 26 MPH (23 knots; 11.8 m/s)
gusting to 44 MPH (38 knots; 19.5 m/s)
Visibility: 6 or more miles (10+ km)
Ceiling: 2000 feet AGL
Clouds: few clouds at 1000 feet AGL
scattered clouds at 1500 feet AGL
broken clouds at 2000 feet AGL
Weather: -SHRA  (light rain showers)

METAR text: RJSN 152250Z 23027G37KT 9999 -SHRA FEW008 SCT015 BKN020 20/18 Q0987 RMK 1CU008 3CU015 6CU020 A2915
Conditions at: RJSN (NIIGATA (CIV/JAS, JP) observed 2250 UTC 15 June 2019
Temperature: 20.0°C (68°F)
Dewpoint: 18.0°C (64°F) [RH = 88%]
Pressure (altimeter): 29.14 inches Hg (987.0 mb)
Winds: from the SW (230 degrees) at 31 MPH (27 knots; 13.9 m/s)
gusting to 43 MPH (37 knots; 19.0 m/s)
Visibility: 6 or more miles (10+ km)
Ceiling: 2000 feet AGL
Clouds: few clouds at 800 feet AGL
scattered clouds at 1500 feet AGL
broken clouds at 2000 feet AGL
Weather: -SHRA  (light rain showers)

METAR text: RJSN 152248Z 23029KT 9999 -SHRA FEW008 SCT015 BKN020 20/18 Q0987 RMK 1CU008 3CU015 6CU020 A2915
Conditions at: RJSN (NIIGATA (CIV/JAS, JP) observed 2248 UTC 15 June 2019
Temperature: 20.0°C (68°F)
Dewpoint: 18.0°C (64°F) [RH = 88%]
Pressure (altimeter): 29.14 inches Hg (987.0 mb)
Winds: from the SW (230 degrees) at 33 MPH (29 knots; 14.9 m/s)
Visibility: 6 or more miles (10+ km)
Ceiling: 2000 feet AGL
Clouds: few clouds at 800 feet AGL
scattered clouds at 1500 feet AGL
broken clouds at 2000 feet AGL
Weather: -SHRA  (light rain showers)

METAR text: RJSN 152200Z 22018G28KT 9999 -SHRA FEW008 SCT010 BKN015 20/18 Q0986
Conditions at: RJSN (NIIGATA (CIV/JAS, JP) observed 2200 UTC 15 June 2019
Temperature: 20.0°C (68°F)
Dewpoint: 18.0°C (64°F) [RH = 88%]
Pressure (altimeter): 29.11 inches Hg (986.0 mb)
Winds: from the SW (220 degrees) at 21 MPH (18 knots; 9.3 m/s)
gusting to 32 MPH (28 knots; 14.4 m/s)
Visibility: 6 or more miles (10+ km)
Ceiling: 1500 feet AGL
Clouds: few clouds at 800 feet AGL
scattered clouds at 1000 feet AGL
broken clouds at 1500 feet AGL
Weather: -SHRA  (light rain showers)

METAR text: RJSN 152110Z 22014G24KT 6000 -SHRA FEW008 SCT010 BKN015 19/19 Q0986 RMK 1CU008 3CU010 6CU015 A2914
Conditions at: RJSN (NIIGATA (CIV/JAS, JP) observed 2110 UTC 15 June 2019
Temperature: 19.0°C (66°F)
Dewpoint: 19.0°C (66°F) [RH = 100%]
Pressure (altimeter): 29.11 inches Hg (986.0 mb)
Winds: from the SW (220 degrees) at 16 MPH (14 knots; 7.2 m/s)
gusting to 28 MPH (24 knots; 12.3 m/s)
Visibility: 4 miles ( 6 km)
Ceiling: 1500 feet AGL
Clouds: few clouds at 800 feet AGL
scattered clouds at 1000 feet AGL
broken clouds at 1500 feet AGL
Weather: -SHRA  (light rain showers)

METAR text: RJSN 151200Z VRB02KT 9999 FEW030 SCT100 19/18 Q0989
Conditions at: RJSN (NIIGATA (CIV/JAS, JP) observed 1200 UTC 15 June 2019
Temperature: 19.0°C (66°F)
Dewpoint: 18.0°C (64°F) [RH = 94%]
Pressure (altimeter): 29.20 inches Hg (989.0 mb)
Winds: variable direction winds at 2 MPH (2 knots; 1.0 m/s)
Visibility: 6 or more miles (10+ km)
Ceiling: at least 12,000 feet AGL
Clouds: few clouds at 3000 feet AGL
scattered clouds at 10000 feet AGL
Weather: no significant weather observed at this time

METAR text: RJSN 151100Z 07006KT 9999 -SHRA FEW030 SCT050 BKN080 20/18 Q0990
Conditions at: RJSN (NIIGATA (CIV/JAS, JP) observed 1100 UTC 15 June 2019
Temperature: 20.0°C (68°F)
Dewpoint: 18.0°C (64°F) [RH = 88%]
Pressure (altimeter): 29.23 inches Hg (990.0 mb)
Winds: from the ENE (70 degrees) at 7 MPH (6 knots; 3.1 m/s)
Visibility: 6 or more miles (10+ km)
Ceiling: 8000 feet AGL
Clouds: few clouds at 3000 feet AGL
scattered clouds at 5000 feet AGL
broken clouds at 8000 feet AGL
Weather: -SHRA  (light rain showers)

METAR text: RJSN 151000Z 17009KT 130V200 9999 -SHRA FEW020 SCT030 BKN050 22/16 Q0992
Conditions at: RJSN (NIIGATA (CIV/JAS, JP) observed 1000 UTC 15 June 2019
Temperature: 22.0°C (72°F)
Dewpoint: 16.0°C (61°F) [RH = 69%]
Pressure (altimeter): 29.29 inches Hg (992.0 mb)
Winds: from the S (170 degrees) at 10 MPH (9 knots; 4.6 m/s)
Visibility: 6 or more miles (10+ km)
Ceiling: 5000 feet AGL
Clouds: few clouds at 2000 feet AGL
scattered clouds at 3000 feet AGL
broken clouds at 5000 feet AGL
Weather: -SHRA  (light rain showers)

METAR text: RJSN 150944Z 18008KT 9999 VCSH FEW030 SCT050 BKN080 22/15 Q0992 RMK 1CU030 3CU050 5AC080 A2931
Conditions at: RJSN (NIIGATA (CIV/JAS, JP) observed 0944 UTC 15 June 2019
Temperature: 22.0°C (72°F)
Dewpoint: 15.0°C (59°F) [RH = 65%]
Pressure (altimeter): 29.29 inches Hg (992.0 mb)
Winds: from the S (180 degrees) at 9 MPH (8 knots; 4.1 m/s)
Visibility: 6 or more miles (10+ km)
Ceiling: 8000 feet AGL
Clouds: few clouds at 3000 feet AGL
scattered clouds at 5000 feet AGL
broken clouds at 8000 feet AGL
Weather: VCSH  (showers in vicinity)

METAR text: RJSN 150900Z 12014G24KT 9999 -SHRA FEW030 SCT050 BKN080 23/14 Q0991
Conditions at: RJSN (NIIGATA (CIV/JAS, JP) observed 0900 UTC 15 June 2019
Temperature: 23.0°C (73°F)
Dewpoint: 14.0°C (57°F) [RH = 57%]
Pressure (altimeter): 29.26 inches Hg (991.0 mb)
Winds: from the ESE (120 degrees) at 16 MPH (14 knots; 7.2 m/s)
gusting to 28 MPH (24 knots; 12.3 m/s)
Visibility: 6 or more miles (10+ km)
Ceiling: 8000 feet AGL
Clouds: few clouds at 3000 feet AGL
scattered clouds at 5000 feet AGL
broken clouds at 8000 feet AGL
Weather: -SHRA  (light rain showers)

METAR text: RJSN 150821Z 13015G26KT 9999 FEW030 SCT080 BKN170 24/13 Q0992 RMK 1CU030 3AC080 6AC170 A2930
Conditions at: RJSN (NIIGATA (CIV/JAS, JP) observed 0821 UTC 15 June 2019
Temperature: 24.0°C (75°F)
Dewpoint: 13.0°C (55°F) [RH = 50%]
Pressure (altimeter): 29.29 inches Hg (992.0 mb)
Winds: from the SE (130 degrees) at 17 MPH (15 knots; 7.7 m/s)
gusting to 30 MPH (26 knots; 13.4 m/s)
Visibility: 6 or more miles (10+ km)
Ceiling: 17000 feet AGL
Clouds: few clouds at 3000 feet AGL
scattered clouds at 8000 feet AGL
broken clouds at 17000 feet AGL
Weather: no significant weather observed at this time

METAR text: RJSN 150800Z 13009KT 100V160 9999 FEW030 SCT100 BKN180 23/13 Q0992
Conditions at: RJSN (NIIGATA (CIV/JAS, JP) observed 0800 UTC 15 June 2019
Temperature: 23.0°C (73°F)
Dewpoint: 13.0°C (55°F) [RH = 53%]
Pressure (altimeter): 29.29 inches Hg (992.0 mb)
Winds: from the SE (130 degrees) at 10 MPH (9 knots; 4.6 m/s)
Visibility: 6 or more miles (10+ km)
Ceiling: 18000 feet AGL
Clouds: few clouds at 3000 feet AGL
scattered clouds at 10000 feet AGL
broken clouds at 18000 feet AGL
Weather: no significant weather observed at this time

METAR text: RJSN 150700Z 11016KT 9999 FEW030 SCT050 BKN100 23/13 Q0993
Conditions at: RJSN (NIIGATA (CIV/JAS, JP) observed 0700 UTC 15 June 2019
Temperature: 23.0°C (73°F)
Dewpoint: 13.0°C (55°F) [RH = 53%]
Pressure (altimeter): 29.32 inches Hg (993.0 mb)
Winds: from the ESE (110 degrees) at 18 MPH (16 knots; 8.2 m/s)
Visibility: 6 or more miles (10+ km)
Ceiling: 10000 feet AGL
Clouds: few clouds at 3000 feet AGL
scattered clouds at 5000 feet AGL
broken clouds at 10000 feet AGL
Weather: no significant weather observed at this time

METAR text: RJSN 150600Z 13010KT 100V160 9999 FEW030 SCT070 BKN100 23/12 Q0995
Conditions at: RJSN (NIIGATA (CIV/JAS, JP) observed 0600 UTC 15 June 2019
Temperature: 23.0°C (73°F)
Dewpoint: 12.0°C (54°F) [RH = 50%]
Pressure (altimeter): 29.38 inches Hg (995.0 mb)
Winds: from the SE (130 degrees) at 12 MPH (10 knots; 5.1 m/s)
Visibility: 6 or more miles (10+ km)
Ceiling: 10000 feet AGL
Clouds: few clouds at 3000 feet AGL
scattered clouds at 7000 feet AGL
broken clouds at 10000 feet AGL
Weather: no significant weather observed at this time

METAR text: RJSN 150500Z 14011KT 9999 FEW030 SCT070 BKN100 23/12 Q0996
Conditions at: RJSN (NIIGATA (CIV/JAS, JP) observed 0500 UTC 15 June 2019
Temperature: 23.0°C (73°F)
Dewpoint: 12.0°C (54°F) [RH = 50%]
Pressure (altimeter): 29.41 inches Hg (996.0 mb)
Winds: from the SE (140 degrees) at 13 MPH (11 knots; 5.7 m/s)
Visibility: 6 or more miles (10+ km)
Ceiling: 10000 feet AGL
Clouds: few clouds at 3000 feet AGL
scattered clouds at 7000 feet AGL
broken clouds at 10000 feet AGL
Weather: no significant weather observed at this time

Forecast for: RJSN (NIIGATA (CIV/JAS, JP)
Text: TAF RJSN 161106Z 1612/1718 30020KT 9999 FEW010 BKN020
Forecast period: 1200 UTC 16 June 2019 to 0600 UTC 17 June 2019
Forecast type: FROM: standard forecast or significant change
Winds: from the WNW (300 degrees) at 23 MPH (20 knots; 10.3 m/s)
Visibility: 6 or more miles 10+ km)
Ceiling: 2000 feet AGL
Clouds: few clouds at 1000 feet AGL
broken clouds at 2000 feet AGL
Weather: no significant weather forecast for this period
Text: BECMG 1706/1709 20006KT
Forecast period: 0600 to 1500 UTC 17 June 2019
Forecast type: BECOMING: Conditions expected to become as follows by 0900 UTC 17 June 2019
Winds: from the SSW (200 degrees) at 7 MPH (6 knots; 3.1 m/s)
Visibility: 6 or more miles 10+ km)
Ceiling: 2000 feet AGL
Clouds: few clouds at 1000 feet AGL
broken clouds at 2000 feet AGL
Weather: no significant weather forecast for this period
Text: BECMG 1715/1718 18006KT
Forecast period: 1500 to 1800 UTC 17 June 2019
Forecast type: BECOMING: Conditions expected to become as follows by 1800 UTC 17 June 2019
Winds: from the S (180 degrees) at 7 MPH (6 knots; 3.1 m/s)
Visibility: 6 or more miles 10+ km)
Ceiling: 2000 feet AGL
Clouds: few clouds at 1000 feet AGL
broken clouds at 2000 feet AGL
Weather: no significant weather forecast for this period